createdAt,value
2023-04-28T00:00:48.986Z,60.12
2023-04-28T00:01:48.663Z,60.95
2023-04-28T00:02:49.000Z,62.07
2023-04-28T00:03:48.866Z,63.58
2023-04-28T00:04:48.862Z,65.05
2023-04-28T00:05:48.739Z,65.61
2023-04-28T00:06:48.723Z,65.71
2023-04-28T00:07:48.711Z,65.51
2023-04-28T00:08:48.758Z,62.72
2023-04-28T00:09:48.743Z,59.48
2023-04-28T00:10:48.789Z,55.59
2023-04-28T00:11:48.553Z,50.88
2023-04-28T00:12:48.570Z,46.28
2023-04-28T00:13:48.584Z,42.63
2023-04-28T00:14:48.629Z,39.28
2023-04-28T00:15:48.577Z,36.87
2023-04-28T00:16:48.741Z,35.15
2023-04-28T00:17:48.830Z,33.79
2023-04-28T00:18:48.738Z,32.22
2023-04-28T00:19:48.765Z,31.54
2023-04-28T00:20:48.812Z,32.84
2023-04-28T00:21:48.418Z,35.09
2023-04-28T00:22:48.566Z,37.07
2023-04-28T00:23:48.395Z,39.03
2023-04-28T00:24:48.405Z,41.45
2023-04-28T00:25:48.963Z,44.62
2023-04-28T00:26:48.982Z,46.49
2023-04-28T00:27:48.984Z,48.44
2023-04-28T00:28:49.005Z,50.42
2023-04-28T00:29:48.651Z,53.16
2023-04-28T00:30:48.345Z,56.07
2023-04-28T00:31:48.564Z,58.12
2023-04-28T00:32:49.125Z,60.99
2023-04-28T00:33:48.457Z,63.10
2023-04-28T00:34:48.503Z,64.90
2023-04-28T00:35:49.099Z,67.45
2023-04-28T00:36:49.012Z,69.63
2023-04-28T00:37:48.842Z,70.98
2023-04-28T00:38:48.949Z,72.58
2023-04-28T00:39:48.223Z,74.11
2023-04-28T00:40:48.212Z,76.06
2023-04-28T00:41:48.885Z,77.03
2023-04-28T00:42:48.192Z,78.32
2023-04-28T00:43:48.241Z,79.21
2023-04-28T00:44:48.296Z,80.97
2023-04-28T00:45:48.170Z,83.96
2023-04-28T00:46:48.558Z,85.67
2023-04-28T00:47:48.901Z,87.63
2023-04-28T00:48:48.123Z,89.12
2023-04-28T00:49:48.521Z,89.79
2023-04-28T00:50:49.031Z,90.76
2023-04-28T00:51:49.005Z,91.45
2023-04-28T00:52:48.272Z,92.15
2023-04-28T00:53:48.815Z,91.65
2023-04-28T00:54:48.200Z,92.66
2023-04-28T00:55:48.166Z,91.85
2023-04-28T00:56:48.049Z,92.45
2023-04-28T00:57:48.026Z,92.05
2023-04-28T00:58:48.041Z,91.05
2023-04-28T00:59:48.013Z,91.65
2023-04-28T01:00:48.037Z,92.15
2023-04-28T01:01:48.094Z,93.07
2023-04-28T01:02:48.172Z,92.05
2023-04-28T01:03:48.318Z,92.05
2023-04-28T01:04:48.165Z,91.45
2023-04-28T01:05:47.947Z,91.85
2023-04-28T01:06:48.036Z,91.75
2023-04-28T01:07:48.035Z,91.15
2023-04-28T01:08:47.913Z,89.40
2023-04-28T01:09:48.303Z,89.31
2023-04-28T01:10:47.855Z,88.56
2023-04-28T01:11:48.306Z,88.19
2023-04-28T01:12:47.835Z,86.46
2023-04-28T01:13:48.037Z,85.84
2023-04-28T01:14:48.038Z,84.98
2023-04-28T01:15:47.880Z,84.81
2023-04-28T01:16:48.079Z,84.21
2023-04-28T01:17:48.556Z,83.46
2023-04-28T01:18:48.056Z,82.47
2023-04-28T01:19:48.054Z,81.28
2023-04-28T01:20:48.021Z,79.89
2023-04-28T01:21:48.045Z,79.14
2023-04-28T01:22:47.737Z,78.47
2023-04-28T01:23:47.726Z,76.06
2023-04-28T01:24:47.740Z,75.24
2023-04-28T01:25:47.747Z,73.53
2023-04-28T01:26:47.775Z,71.71
2023-04-28T01:27:47.778Z,70.75
2023-04-28T01:28:47.805Z,70.33
2023-04-28T01:29:47.803Z,69.29
2023-04-28T01:30:47.829Z,69.17
2023-04-28T01:31:48.043Z,69.69
2023-04-28T01:32:47.721Z,70.45
2023-04-28T01:33:47.584Z,71.65
2023-04-28T01:34:47.893Z,72.45
2023-04-28T01:35:47.663Z,73.72
2023-04-28T01:36:47.664Z,74.24
2023-04-28T01:37:47.549Z,74.84
2023-04-28T01:38:47.554Z,74.57
2023-04-28T01:39:47.529Z,74.97
2023-04-28T01:40:47.520Z,74.18
2023-04-28T01:41:47.494Z,74.05
2023-04-28T01:42:47.497Z,74.38
2023-04-28T01:43:47.496Z,74.44
2023-04-28T01:44:47.498Z,74.44
2023-04-28T01:45:47.532Z,73.66
2023-04-28T01:46:47.458Z,71.96
2023-04-28T01:47:47.490Z,70.80
2023-04-28T01:48:47.516Z,69.00
2023-04-28T01:49:47.390Z,67.78
2023-04-28T01:50:47.493Z,66.92
2023-04-28T01:51:47.515Z,65.36
2023-04-28T01:52:47.516Z,65.05
2023-04-28T01:53:47.487Z,64.21
2023-04-28T01:54:47.505Z,64.26
2023-04-28T01:55:47.503Z,65.15
2023-04-28T01:56:47.471Z,66.97
2023-04-28T01:57:47.529Z,69.06
2023-04-28T01:58:47.289Z,71.04
2023-04-28T01:59:47.283Z,72.89
2023-04-28T02:00:47.496Z,75.58
2023-04-28T02:01:47.529Z,76.96
2023-04-28T02:02:47.567Z,78.18
2023-04-28T02:03:47.600Z,78.77
2023-04-28T02:04:47.534Z,77.25
2023-04-28T02:05:47.496Z,74.77
2023-04-28T02:06:47.552Z,72.77
2023-04-28T02:07:47.526Z,73.40
2023-04-28T02:08:47.491Z,73.34
2023-04-28T02:09:47.168Z,72.58
2023-04-28T02:10:47.507Z,70.86
2023-04-28T02:11:47.132Z,67.67
2023-04-28T02:12:47.374Z,64.65
2023-04-28T02:13:47.124Z,63.05
2023-04-28T02:14:47.116Z,60.77
2023-04-28T02:15:47.202Z,59.78
2023-04-28T02:16:47.091Z,59.10
2023-04-28T02:17:47.088Z,57.72
2023-04-28T02:18:47.088Z,56.29
2023-04-28T02:19:47.106Z,53.95
2023-04-28T02:20:47.097Z,53.16
2023-04-28T02:21:47.078Z,51.60
2023-04-28T02:22:47.009Z,50.09
2023-04-28T02:23:46.982Z,48.44
2023-04-28T02:24:47.111Z,48.06
2023-04-28T02:25:47.022Z,48.61
2023-04-28T02:26:46.971Z,49.62
2023-04-28T02:27:47.116Z,49.70
2023-04-28T02:28:46.944Z,49.35
2023-04-28T02:29:46.915Z,49.59
2023-04-28T02:30:47.110Z,50.39
2023-04-28T02:31:46.928Z,50.15
2023-04-28T02:32:47.127Z,48.87
2023-04-28T02:33:46.892Z,48.50
2023-04-28T02:34:46.907Z,50.15
2023-04-28T02:35:46.938Z,51.53
2023-04-28T02:36:46.861Z,52.08
2023-04-28T02:37:46.830Z,51.88
2023-04-28T02:38:46.833Z,51.44
2023-04-28T02:39:47.059Z,50.69
2023-04-28T02:40:47.096Z,50.21
2023-04-28T02:41:46.787Z,50.24
2023-04-28T02:42:46.792Z,49.76
2023-04-28T02:43:46.760Z,49.67
2023-04-28T02:44:46.748Z,50.06
2023-04-28T02:45:46.830Z,50.39
2023-04-28T02:46:46.763Z,52.33
2023-04-28T02:47:46.795Z,54.12
2023-04-28T02:48:46.717Z,56.26
2023-04-28T02:49:46.877Z,58.61
2023-04-28T02:50:46.691Z,60.99
2023-04-28T02:51:46.917Z,63.00
2023-04-28T02:52:48.945Z,63.62
2023-04-28T02:53:46.645Z,63.62
2023-04-28T02:54:46.635Z,63.00
2023-04-28T02:55:46.623Z,61.53
2023-04-28T02:56:46.995Z,61.17
2023-04-28T02:57:46.770Z,61.26
2023-04-28T02:58:47.018Z,60.38
2023-04-28T02:59:47.021Z,59.23
2023-04-28T03:00:46.668Z,56.87
2023-04-28T03:01:47.059Z,53.88
2023-04-28T03:02:46.580Z,50.69
2023-04-28T03:03:47.238Z,46.85
2023-04-28T03:04:47.134Z,43.15
2023-04-28T03:05:47.126Z,40.11
2023-04-28T03:06:46.497Z,37.30
2023-04-28T03:07:47.119Z,35.35
2023-04-28T03:08:46.480Z,33.74
2023-04-28T03:09:47.127Z,32.74
2023-04-28T03:10:46.450Z,31.87
2023-04-28T03:11:46.437Z,31.21
2023-04-28T03:12:47.137Z,30.96
2023-04-28T03:13:47.136Z,31.21
2023-04-28T03:14:46.428Z,31.87
2023-04-28T03:15:46.689Z,32.39
2023-04-28T03:16:47.081Z,32.61
2023-04-28T03:17:46.383Z,32.77
2023-04-28T03:18:46.369Z,33.02
2023-04-28T03:19:46.325Z,33.58
2023-04-28T03:20:46.339Z,34.18
2023-04-28T03:21:46.377Z,34.86
2023-04-28T03:22:46.396Z,36.55
2023-04-28T03:23:46.283Z,38.14
2023-04-28T03:24:46.406Z,38.96
2023-04-28T03:25:46.493Z,39.14
2023-04-28T03:26:46.262Z,39.25
2023-04-28T03:27:46.228Z,40.18
2023-04-28T03:28:46.590Z,42.54
2023-04-28T03:29:46.216Z,45.09
2023-04-28T03:30:46.213Z,47.67
2023-04-28T03:31:46.709Z,49.97
2023-04-28T03:32:46.231Z,51.50
2023-04-28T03:33:46.189Z,52.73
2023-04-28T03:34:46.178Z,53.60
2023-04-28T03:35:46.139Z,54.72
2023-04-28T03:36:46.168Z,56.75
2023-04-28T03:37:46.146Z,58.37
2023-04-28T03:38:46.146Z,58.04
2023-04-28T03:39:46.121Z,56.75
2023-04-28T03:40:46.106Z,55.99
2023-04-28T03:41:46.065Z,55.15
2023-04-28T03:42:46.090Z,54.93
2023-04-28T03:43:46.037Z,56.64
2023-04-28T03:44:46.157Z,57.65
2023-04-28T03:45:46.054Z,57.41
2023-04-28T03:46:46.158Z,56.75
2023-04-28T03:47:46.053Z,55.59
2023-04-28T03:48:46.002Z,54.19
2023-04-28T03:49:45.988Z,53.40
2023-04-28T03:50:45.984Z,53.20
2023-04-28T03:51:45.948Z,52.76
2023-04-28T03:52:46.126Z,52.93
2023-04-28T03:53:45.928Z,52.27
2023-04-28T03:54:45.939Z,52.66
2023-04-28T03:55:46.157Z,53.26
2023-04-28T03:56:45.884Z,53.84
2023-04-28T03:57:45.890Z,54.86
2023-04-28T03:58:46.161Z,56.37
2023-04-28T03:59:45.898Z,58.04
2023-04-28T04:00:45.856Z,58.65
2023-04-28T04:01:45.849Z,59.57
2023-04-28T04:02:45.996Z,60.21
2023-04-28T04:03:46.154Z,60.60
2023-04-28T04:04:46.139Z,60.51
2023-04-28T04:05:45.968Z,59.65
2023-04-28T04:06:45.783Z,58.61
2023-04-28T04:07:45.785Z,57.49
2023-04-28T04:08:45.810Z,56.71
2023-04-28T04:09:45.830Z,56.18
2023-04-28T04:10:45.874Z,55.04
2023-04-28T04:11:45.733Z,54.08
2023-04-28T04:12:45.761Z,54.65
2023-04-28T04:13:45.736Z,55.66
2023-04-28T04:14:45.723Z,57.33
2023-04-28T04:15:45.765Z,58.86
2023-04-28T04:16:45.889Z,61.30
2023-04-28T04:17:46.129Z,63.67
2023-04-28T04:18:45.856Z,65.36
2023-04-28T04:19:45.885Z,65.87
2023-04-28T04:20:45.644Z,66.18
2023-04-28T04:21:45.642Z,65.92
2023-04-28T04:22:45.587Z,65.97
2023-04-28T04:23:45.600Z,66.39
2023-04-28T04:24:46.182Z,66.44
2023-04-28T04:25:45.616Z,66.65
2023-04-28T04:26:45.544Z,67.29
2023-04-28T04:27:45.558Z,68.83
2023-04-28T04:28:45.540Z,70.21
2023-04-28T04:29:45.522Z,70.86
2023-04-28T04:30:45.502Z,71.59
2023-04-28T04:31:45.582Z,71.35
2023-04-28T04:32:46.199Z,70.57
2023-04-28T04:33:45.473Z,69.98
2023-04-28T04:34:45.453Z,69.98
2023-04-28T04:35:46.201Z,70.21
2023-04-28T04:36:45.449Z,70.10
2023-04-28T04:37:45.440Z,70.39
2023-04-28T04:38:45.403Z,70.98
2023-04-28T04:39:45.441Z,71.41
2023-04-28T04:40:46.201Z,72.26
2023-04-28T04:41:46.206Z,70.27
2023-04-28T04:42:45.351Z,68.22
2023-04-28T04:43:45.368Z,67.29
2023-04-28T04:44:46.098Z,67.08
2023-04-28T04:45:45.353Z,66.49
2023-04-28T04:46:45.345Z,65.87
2023-04-28T04:47:45.364Z,64.65
2023-04-28T04:48:46.201Z,63.48
2023-04-28T04:49:45.986Z,62.12
2023-04-28T04:50:45.349Z,61.39
2023-04-28T04:51:46.209Z,60.64
2023-04-28T04:52:45.240Z,60.29
2023-04-28T04:53:45.250Z,59.74
2023-04-28T04:54:45.228Z,59.19
2023-04-28T04:55:45.250Z,58.69
2023-04-28T04:56:45.209Z,57.96
2023-04-28T04:57:45.203Z,58.08
2023-04-28T04:58:45.176Z,58.53
2023-04-28T04:59:45.180Z,58.49
2023-04-28T05:00:45.167Z,58.45
2023-04-28T05:01:45.169Z,58.82
2023-04-28T05:02:45.237Z,59.27
2023-04-28T05:03:45.304Z,59.40
2023-04-28T05:04:45.457Z,59.57
2023-04-28T05:05:46.348Z,59.10
2023-04-28T05:06:45.098Z,58.73
2023-04-28T05:07:45.082Z,58.04
2023-04-28T05:08:45.055Z,57.41
2023-04-28T05:09:45.059Z,56.60
2023-04-28T05:10:45.044Z,54.76
2023-04-28T05:11:45.051Z,53.57
2023-04-28T05:12:48.230Z,52.20
2023-04-28T05:13:45.006Z,51.09
2023-04-28T05:14:44.979Z,50.24
2023-04-28T05:15:44.989Z,49.53
2023-04-28T05:16:45.043Z,48.58
2023-04-28T05:17:45.015Z,47.59
2023-04-28T05:18:44.936Z,46.75
2023-04-28T05:19:44.937Z,45.73
2023-04-28T05:20:44.925Z,44.90
2023-04-28T05:21:44.920Z,44.66
2023-04-28T05:22:44.905Z,44.38
2023-04-28T05:23:44.905Z,44.01
2023-04-28T05:24:44.862Z,43.51
2023-04-28T05:25:44.872Z,42.71
2023-04-28T05:26:44.838Z,41.99
2023-04-28T05:27:44.861Z,41.25
2023-04-28T05:28:44.829Z,40.22
2023-04-28T05:29:44.823Z,39.10
2023-04-28T05:30:44.791Z,38.08
2023-04-28T05:31:44.870Z,37.23
2023-04-28T05:32:44.800Z,36.43
2023-04-28T05:33:44.791Z,35.50
2023-04-28T05:34:44.750Z,34.51
2023-04-28T05:35:44.761Z,33.66
2023-04-28T05:36:44.746Z,32.79
2023-04-28T05:37:44.715Z,31.90
2023-04-28T05:38:44.724Z,31.07
2023-04-28T05:39:44.717Z,30.03
2023-04-28T05:40:44.720Z,29.02
2023-04-28T05:41:44.681Z,28.03
2023-04-28T05:42:44.674Z,27.27
2023-04-28T05:43:44.685Z,26.44
2023-04-28T05:44:45.006Z,25.58
2023-04-28T05:45:44.730Z,24.87
2023-04-28T05:46:44.656Z,24.03
2023-04-28T05:47:44.679Z,23.12
2023-04-28T05:48:44.605Z,22.40
2023-04-28T05:49:44.624Z,21.64
2023-04-28T05:50:44.557Z,20.93
2023-04-28T05:51:44.602Z,20.38
2023-04-28T05:52:45.250Z,19.77
2023-04-28T05:53:44.538Z,19.44
2023-04-28T05:54:44.516Z,18.98
2023-04-28T05:55:44.526Z,18.55
2023-04-28T05:56:44.511Z,18.26
2023-04-28T05:57:52.279Z,17.93
2023-04-28T05:58:45.461Z,17.61
2023-04-28T05:59:44.564Z,17.25
2023-04-28T06:00:45.264Z,16.95
2023-04-28T06:01:44.451Z,16.63
2023-04-28T06:02:44.586Z,16.25
2023-04-28T06:03:44.498Z,15.93
2023-04-28T06:04:45.597Z,15.67
2023-04-28T06:05:44.559Z,15.35
2023-04-28T06:06:44.371Z,15.13
2023-04-28T06:07:44.377Z,14.94
2023-04-28T06:08:45.195Z,14.78
2023-04-28T06:09:44.352Z,14.62
2023-04-28T06:10:44.345Z,14.55
2023-04-28T06:11:44.331Z,14.49
2023-04-28T06:12:44.320Z,14.51
2023-04-28T06:13:44.303Z,14.47
2023-04-28T06:14:44.292Z,14.47
2023-04-28T06:15:44.314Z,14.51
2023-04-28T06:16:44.277Z,14.65
2023-04-28T06:17:44.340Z,14.74
2023-04-28T06:18:44.226Z,14.75
2023-04-28T06:19:44.240Z,14.76
2023-04-28T06:20:44.217Z,14.85
2023-04-28T06:21:44.204Z,15.02
2023-04-28T06:22:44.215Z,15.22
2023-04-28T06:23:44.199Z,15.40
2023-04-28T06:24:44.265Z,15.64
2023-04-28T06:25:44.179Z,15.91
2023-04-28T06:26:44.170Z,16.15
2023-04-28T06:27:44.157Z,16.33
2023-04-28T06:28:44.109Z,16.48
2023-04-28T06:29:44.114Z,16.52
2023-04-28T06:30:44.096Z,16.50
2023-04-28T06:31:44.149Z,16.43
2023-04-28T06:32:44.294Z,16.38
2023-04-28T06:33:44.075Z,16.25
2023-04-28T06:34:44.053Z,16.13
2023-04-28T06:35:44.076Z,15.98
2023-04-28T06:36:44.015Z,15.79
2023-04-28T06:37:44.021Z,15.53
2023-04-28T06:38:44.022Z,15.40
2023-04-28T06:39:43.995Z,15.24
2023-04-28T06:40:43.987Z,15.10
2023-04-28T06:41:44.011Z,14.91
2023-04-28T06:42:43.967Z,14.78
2023-04-28T06:43:43.952Z,14.58
2023-04-28T06:44:43.927Z,14.48
2023-04-28T06:45:43.954Z,14.44
2023-04-28T06:46:43.932Z,14.52
2023-04-28T06:47:43.983Z,14.69
2023-04-28T06:48:43.890Z,14.75
2023-04-28T06:49:43.907Z,14.89
2023-04-28T06:50:44.082Z,15.10
2023-04-28T06:51:43.874Z,15.31
2023-04-28T06:52:43.833Z,15.54
2023-04-28T06:53:43.838Z,15.60
2023-04-28T06:54:43.909Z,15.69
2023-04-28T06:55:44.269Z,15.78
2023-04-28T06:56:44.269Z,16.07
2023-04-28T06:58:43.782Z,17.63
2023-04-28T06:59:43.821Z,18.92
2023-04-28T07:00:43.788Z,19.98
2023-04-28T07:01:43.797Z,20.66
2023-04-28T07:02:43.987Z,21.55
2023-04-28T07:03:43.855Z,22.82
2023-04-28T07:04:43.689Z,24.29
2023-04-28T07:05:44.008Z,25.84
2023-04-28T07:06:43.735Z,27.34
2023-04-28T07:07:43.666Z,28.27
2023-04-28T07:08:43.670Z,28.68
2023-04-28T07:09:44.857Z,28.96
2023-04-28T07:10:43.797Z,29.20
2023-04-28T07:11:44.254Z,29.84
2023-04-28T07:12:43.643Z,30.64
2023-04-28T07:13:43.615Z,31.66
2023-04-28T07:14:43.604Z,33.02
2023-04-28T07:15:43.645Z,34.71
2023-04-28T07:16:43.646Z,36.68
2023-04-28T07:17:44.504Z,37.80
2023-04-28T07:18:44.322Z,38.32
2023-04-28T07:19:43.553Z,38.08
2023-04-28T07:20:44.429Z,38.35
2023-04-28T07:21:44.366Z,39.69
2023-04-28T07:22:44.264Z,41.82
2023-04-28T07:23:43.621Z,43.28
2023-04-28T07:24:44.438Z,44.85
2023-04-28T07:25:44.342Z,46.08
2023-04-28T07:26:44.333Z,48.25
2023-04-28T07:27:44.274Z,50.27
2023-04-28T07:28:44.182Z,51.79
2023-04-28T07:29:44.347Z,54.02
2023-04-28T07:30:44.371Z,55.40
2023-04-28T07:31:44.365Z,55.85
2023-04-28T07:32:43.405Z,56.79
2023-04-28T07:33:44.221Z,58.41
2023-04-28T07:34:43.348Z,59.74
2023-04-28T07:35:43.430Z,59.69
2023-04-28T07:36:43.338Z,60.51
2023-04-28T07:37:43.385Z,61.04
2023-04-28T07:38:43.334Z,61.75
2023-04-28T07:39:43.325Z,63.24
2023-04-28T07:40:43.293Z,65.41
2023-04-28T07:41:43.278Z,66.76
2023-04-28T07:42:43.249Z,67.13
2023-04-28T07:43:43.286Z,68.11
2023-04-28T07:44:43.222Z,68.67
2023-04-28T07:45:43.244Z,68.95
2023-04-28T07:46:43.200Z,69.17
2023-04-28T07:47:43.206Z,67.72
2023-04-28T07:48:43.184Z,66.65
2023-04-28T07:49:43.705Z,66.28
2023-04-28T07:50:43.455Z,65.15
2023-04-28T07:51:43.154Z,64.85
2023-04-28T07:52:43.341Z,63.77
2023-04-28T07:53:43.366Z,62.96
2023-04-28T07:54:43.342Z,60.03
2023-04-28T07:55:43.350Z,57.18
2023-04-28T07:56:43.085Z,54.58
2023-04-28T07:57:43.089Z,52.86
2023-04-28T07:58:43.075Z,51.41
2023-04-28T07:59:43.055Z,50.09
2023-04-28T08:00:43.068Z,47.59
2023-04-28T08:01:43.074Z,45.48
2023-04-28T08:02:43.291Z,43.87
2023-04-28T08:03:43.283Z,43.06
2023-04-28T08:04:43.186Z,43.83
2023-04-28T08:05:43.046Z,44.90
2023-04-28T08:06:42.953Z,45.88
2023-04-28T08:07:42.959Z,45.88
2023-04-28T08:08:42.936Z,46.44
2023-04-28T08:09:42.985Z,46.44
2023-04-28T08:10:43.252Z,45.88
2023-04-28T08:11:42.917Z,48.08
2023-04-28T08:12:42.904Z,53.06
2023-04-28T08:13:42.873Z,58.04
2023-04-28T08:14:42.900Z,62.44
2023-04-28T08:15:42.893Z,65.30
2023-04-28T08:16:42.867Z,65.46
2023-04-28T08:17:42.837Z,66.97
2023-04-28T08:18:42.948Z,69.92
2023-04-28T08:19:42.801Z,74.57
2023-04-28T08:20:42.830Z,78.32
2023-04-28T08:21:42.775Z,81.51
2023-04-28T08:22:42.783Z,83.87
2023-04-28T08:23:42.767Z,86.29
2023-04-28T08:24:42.764Z,88.37
2023-04-28T08:25:42.761Z,91.15
2023-04-28T08:26:42.748Z,94.96
2023-04-28T08:27:42.707Z,94.88
2023-04-28T08:28:42.709Z,96.18
2023-04-28T08:29:42.688Z,97.69
2023-04-28T08:30:42.681Z,98.96
2023-04-28T08:31:42.742Z,100.25
2023-04-28T08:32:42.685Z,100.73
2023-04-28T08:33:42.638Z,100.01
2023-04-28T08:34:42.651Z,99.31
2023-04-28T08:35:42.627Z,101.96
2023-04-28T08:36:42.633Z,103.02
2023-04-28T08:37:42.597Z,100.13
2023-04-28T08:38:42.596Z,96.35
2023-04-28T08:39:42.566Z,92.66
2023-04-28T08:40:43.389Z,81.99
2023-04-28T08:41:42.556Z,77.03
2023-04-28T08:42:42.560Z,74.51
2023-04-28T08:43:42.524Z,73.08
2023-04-28T08:44:42.552Z,74.11
2023-04-28T08:45:43.402Z,74.84
2023-04-28T08:46:42.577Z,75.78
2023-04-28T08:47:42.497Z,74.44
2023-04-28T08:48:42.476Z,72.58
2023-04-28T08:49:42.466Z,72.89
2023-04-28T08:50:42.443Z,73.46
2023-04-28T08:51:42.463Z,72.83
2023-04-28T08:52:42.431Z,72.58
2023-04-28T08:54:06.161Z,69.29
2023-04-28T08:54:43.399Z,66.76
2023-04-28T08:55:42.370Z,64.21
2023-04-28T08:56:42.429Z,63.29
2023-04-28T08:57:42.349Z,63.15
2023-04-28T08:58:42.377Z,61.98
2023-04-28T08:59:42.332Z,59.61
2023-04-28T09:00:42.345Z,58.37
2023-04-28T09:01:42.370Z,57.02
2023-04-28T09:02:42.751Z,56.07
2023-04-28T09:03:42.507Z,55.96
2023-04-28T09:04:42.613Z,56.56
2023-04-28T09:05:42.296Z,56.75
2023-04-28T09:06:42.256Z,56.22
2023-04-28T09:07:42.255Z,57.18
2023-04-28T09:08:42.269Z,57.92
2023-04-28T09:09:42.228Z,56.37
2023-04-28T09:10:42.242Z,55.40
2023-04-28T09:11:42.190Z,54.76
2023-04-28T09:12:42.233Z,54.65
2023-04-28T09:13:42.171Z,53.47
2023-04-28T09:14:42.167Z,52.60
2023-04-28T09:15:42.152Z,52.50
2023-04-28T09:16:42.177Z,51.44
2023-04-28T09:17:42.193Z,51.22
2023-04-28T09:18:42.126Z,51.79
2023-04-28T09:19:42.095Z,52.30
2023-04-28T09:20:42.114Z,52.08
2023-04-28T09:21:42.072Z,52.56
2023-04-28T09:22:42.125Z,52.89
2023-04-28T09:23:42.047Z,52.24
2023-04-28T09:24:42.052Z,50.57
2023-04-28T09:25:42.025Z,49.44
2023-04-28T09:26:42.022Z,49.41
2023-04-28T09:27:42.034Z,49.07
2023-04-28T09:28:42.033Z,48.17
2023-04-28T09:29:41.974Z,45.98
2023-04-28T09:30:41.983Z,43.28
2023-04-28T09:31:41.976Z,39.92
2023-04-28T09:32:42.023Z,38.01
2023-04-28T09:33:41.924Z,37.23
2023-04-28T09:34:41.942Z,37.10
2023-04-28T09:35:41.916Z,36.55
2023-04-28T09:36:41.918Z,36.65
2023-04-28T09:37:41.941Z,36.24
2023-04-28T09:38:41.944Z,35.21
2023-04-28T09:39:41.891Z,35.15
2023-04-28T09:40:41.886Z,35.03
2023-04-28T09:41:41.860Z,34.57
2023-04-28T09:42:41.875Z,34.71
2023-04-28T09:43:41.832Z,35.27
2023-04-28T09:44:41.825Z,35.99
2023-04-28T09:45:41.817Z,36.81
2023-04-28T09:46:41.813Z,37.17
2023-04-28T09:47:41.812Z,36.46
2023-04-28T09:48:41.791Z,36.65
2023-04-28T09:49:41.746Z,36.87
2023-04-28T09:50:41.789Z,37.60
2023-04-28T09:51:41.747Z,37.56
2023-04-28T09:52:41.730Z,37.90
2023-04-28T09:53:41.713Z,37.63
2023-04-28T09:54:41.723Z,37.87
2023-04-28T09:55:41.685Z,38.14
2023-04-28T09:56:41.691Z,38.18
2023-04-28T09:57:41.655Z,35.81
2023-04-28T09:58:41.675Z,34.97
2023-04-28T09:59:42.478Z,35.65
2023-04-28T10:00:41.649Z,36.05
2023-04-28T10:01:41.686Z,36.52
2023-04-28T10:03:42.751Z,37.30
2023-04-28T10:04:07.146Z,36.68
2023-04-28T10:04:41.794Z,37.67
2023-04-28T10:05:41.656Z,37.20
2023-04-28T10:06:41.566Z,35.60
2023-04-28T10:07:41.551Z,32.67
2023-04-28T10:08:41.562Z,32.34
2023-04-28T10:09:41.529Z,32.07
2023-04-28T10:10:41.512Z,29.73
2023-04-28T10:11:41.490Z,27.90
2023-04-28T10:12:41.509Z,27.21
2023-04-28T10:13:41.490Z,27.88
2023-04-28T10:14:41.674Z,28.05
2023-04-28T10:15:41.534Z,28.41
2023-04-28T10:16:41.455Z,29.65
2023-04-28T10:17:41.449Z,30.75
2023-04-28T10:18:41.434Z,31.95
2023-04-28T10:19:41.423Z,33.55
2023-04-28T10:20:41.406Z,35.00
2023-04-28T10:21:41.384Z,35.09
2023-04-28T10:22:41.389Z,35.09
2023-04-28T10:23:41.351Z,35.12
2023-04-28T10:24:41.365Z,35.93
2023-04-28T10:25:41.347Z,37.10
2023-04-28T10:26:41.343Z,37.80
2023-04-28T10:27:41.305Z,36.81
2023-04-28T10:28:42.623Z,35.62
2023-04-28T10:29:41.303Z,33.82
2023-04-28T10:30:41.315Z,31.70
2023-04-28T10:31:41.394Z,29.52
2023-04-28T10:32:41.337Z,27.35
2023-04-28T10:33:41.236Z,25.86
2023-04-28T10:34:41.256Z,25.31
2023-04-28T10:35:41.470Z,26.46
2023-04-28T10:36:41.225Z,27.95
2023-04-28T10:37:41.307Z,28.76
2023-04-28T10:38:41.214Z,29.75
2023-04-28T10:39:41.165Z,30.87
2023-04-28T10:40:41.191Z,31.37
2023-04-28T10:41:41.143Z,30.49
2023-04-28T10:42:41.167Z,29.36
2023-04-28T10:43:41.138Z,29.10
2023-04-28T10:44:41.144Z,30.23
2023-04-28T10:45:42.027Z,31.30
2023-04-28T10:46:41.125Z,32.22
2023-04-28T10:47:41.137Z,33.21
2023-04-28T10:48:41.086Z,34.40
2023-04-28T10:49:41.054Z,34.69
2023-04-28T10:50:41.327Z,34.94
2023-04-28T10:51:41.052Z,36.05
2023-04-28T10:52:41.087Z,37.70
2023-04-28T10:53:41.035Z,38.60
2023-04-28T10:54:41.021Z,39.65
2023-04-28T10:55:40.989Z,39.69
2023-04-28T10:56:42.032Z,38.46
2023-04-28T10:57:40.964Z,35.18
2023-04-28T10:58:40.985Z,33.02
2023-04-28T10:59:40.935Z,32.04
2023-04-28T11:00:40.959Z,32.09
2023-04-28T11:01:40.990Z,32.07
2023-04-28T11:02:43.906Z,31.47
2023-04-28T11:03:41.083Z,30.89
2023-04-28T11:04:41.042Z,32.12
2023-04-28T11:05:40.874Z,33.90
2023-04-28T11:06:40.893Z,33.13
2023-04-28T11:07:40.863Z,33.05
2023-04-28T11:08:40.857Z,32.64
2023-04-28T11:09:40.819Z,32.79
2023-04-28T11:10:40.828Z,32.54
2023-04-28T11:11:40.928Z,32.90
2023-04-28T11:12:40.810Z,33.58
2023-04-28T11:13:42.343Z,34.04
2023-04-28T11:14:41.082Z,32.67
2023-04-28T11:15:40.772Z,30.31
2023-04-28T11:16:40.814Z,29.48
2023-04-28T11:17:40.805Z,29.46
2023-04-28T11:18:40.727Z,29.40
2023-04-28T11:19:41.177Z,29.59
2023-04-28T11:20:40.713Z,28.96
2023-04-28T11:21:40.733Z,28.80
2023-04-28T11:22:40.692Z,28.80
2023-04-28T11:23:40.670Z,29.63
2023-04-28T11:24:40.662Z,29.63
2023-04-28T11:25:40.625Z,29.71
2023-04-28T11:26:41.027Z,29.44
2023-04-28T11:27:41.458Z,28.96
2023-04-28T11:28:40.612Z,29.14
2023-04-28T11:29:40.566Z,28.88
2023-04-28T11:30:40.593Z,29.00
2023-04-28T11:31:40.714Z,27.83
2023-04-28T11:32:40.569Z,27.43
2023-04-28T11:33:40.636Z,28.27
2023-04-28T11:34:40.534Z,28.96
2023-04-28T11:35:40.511Z,29.28
2023-04-28T11:36:40.524Z,29.75
2023-04-28T11:37:40.501Z,30.16
2023-04-28T11:38:40.488Z,31.42
2023-04-28T11:39:40.465Z,34.26
2023-04-28T11:40:40.445Z,36.84
2023-04-28T11:41:40.443Z,38.49
2023-04-28T11:42:40.437Z,40.65
2023-04-28T11:43:47.440Z,43.92
2023-04-28T11:44:41.456Z,45.93
2023-04-28T11:45:40.427Z,47.76
2023-04-28T11:46:40.427Z,47.97
2023-04-28T11:47:40.439Z,47.57
2023-04-28T11:48:40.374Z,48.25
2023-04-28T11:49:40.550Z,48.42
2023-04-28T11:50:40.547Z,47.43
2023-04-28T11:51:41.448Z,46.34
2023-04-28T11:52:40.999Z,45.14
2023-04-28T11:53:40.557Z,45.53
2023-04-28T11:54:40.336Z,45.39
2023-04-28T11:55:40.302Z,45.88
2023-04-28T11:56:40.397Z,46.90
2023-04-28T11:57:40.433Z,48.36
2023-04-28T11:58:40.274Z,49.91
2023-04-28T11:59:42.660Z,51.22
2023-04-28T12:00:40.259Z,51.25
2023-04-28T12:01:40.215Z,50.91
2023-04-28T12:02:40.357Z,50.82
2023-04-28T12:03:40.310Z,51.12
2023-04-28T12:04:40.249Z,50.88
2023-04-28T12:05:40.234Z,50.03
2023-04-28T12:06:40.188Z,50.24
2023-04-28T12:07:40.151Z,50.66
2023-04-28T12:08:40.149Z,51.22
2023-04-28T12:09:40.202Z,51.91
2023-04-28T12:10:40.153Z,52.73
2023-04-28T12:11:40.083Z,52.83
2023-04-28T12:12:50.016Z,54.72
2023-04-28T12:13:41.559Z,56.11
2023-04-28T12:14:40.129Z,57.18
2023-04-28T12:15:40.111Z,60.47
2023-04-28T12:16:40.062Z,62.12
2023-04-28T12:17:40.511Z,60.16
2023-04-28T12:18:40.047Z,59.99
2023-04-28T12:19:40.051Z,60.38
2023-04-28T12:20:40.029Z,55.92
2023-04-28T12:21:40.014Z,49.62
2023-04-28T12:22:40.006Z,44.76
2023-04-28T12:23:39.954Z,41.99
2023-04-28T12:24:39.940Z,40.22
2023-04-28T12:25:40.587Z,37.77
2023-04-28T12:26:39.931Z,34.32
2023-04-28T12:27:39.907Z,31.78
2023-04-28T12:28:39.901Z,28.74
2023-04-28T12:29:39.928Z,26.18
2023-04-28T12:30:40.286Z,24.14
2023-04-28T12:31:39.948Z,22.87
2023-04-28T12:32:39.864Z,21.98
2023-04-28T12:33:39.848Z,21.10
2023-04-28T12:34:39.996Z,20.38
2023-04-28T12:35:40.554Z,19.73
2023-04-28T12:36:40.568Z,19.84
2023-04-28T12:37:39.817Z,19.83
2023-04-28T12:38:40.565Z,19.53
2023-04-28T12:39:40.020Z,19.19
2023-04-28T12:40:39.766Z,18.73
2023-04-28T12:41:39.794Z,18.58
2023-04-28T12:42:39.814Z,18.81
2023-04-28T12:43:39.854Z,19.51
2023-04-28T12:44:39.924Z,20.64
2023-04-28T12:45:39.921Z,21.87
2023-04-28T12:46:39.927Z,22.52
2023-04-28T12:47:40.028Z,23.53
2023-04-28T12:48:40.007Z,23.97
2023-04-28T12:49:40.042Z,24.00
2023-04-28T12:50:40.068Z,23.68
2023-04-28T12:51:40.105Z,23.48
2023-04-28T12:52:40.132Z,23.73
2023-04-28T12:53:39.610Z,23.96